sensor_id;sensor_type;location;lat;lon;timestamp;temperature;humidity
8945;DHT22;4507;40.232;29.132;2022-08-01T00:00:49;24.60;78.40
8945;DHT22;4507;40.232;29.132;2022-08-01T00:03:19;24.60;78.40
8945;DHT22;4507;40.232;29.132;2022-08-01T00:05:48;24.50;78.40
8945;DHT22;4507;40.232;29.132;2022-08-01T00:08:16;24.50;78.80
8945;DHT22;4507;40.232;29.132;2022-08-01T00:10:45;24.50;79.00
8945;DHT22;4507;40.232;29.132;2022-08-01T00:13:13;24.40;79.10
8945;DHT22;4507;40.232;29.132;2022-08-01T00:15:42;24.40;79.30
8945;DHT22;4507;40.232;29.132;2022-08-01T00:18:21;24.40;79.40
8945;DHT22;4507;40.232;29.132;2022-08-01T00:20:50;24.30;79.50
8945;DHT22;4507;40.232;29.132;2022-08-01T00:23:19;24.50;79.90
8945;DHT22;4507;40.232;29.132;2022-08-01T00:25:47;24.40;79.90
8945;DHT22;4507;40.232;29.132;2022-08-01T00:28:16;24.20;79.80
8945;DHT22;4507;40.232;29.132;2022-08-01T00:30:44;24.20;79.80
8945;DHT22;4507;40.232;29.132;2022-08-01T00:33:13;24.20;79.90
8945;DHT22;4507;40.232;29.132;2022-08-01T00:35:43;24.20;80.00
8945;DHT22;4507;40.232;29.132;2022-08-01T00:38:12;24.10;80.10
8945;DHT22;4507;40.232;29.132;2022-08-01T00:40:40;24.00;80.20
8945;DHT22;4507;40.232;29.132;2022-08-01T00:43:09;24.10;80.50
8945;DHT22;4507;40.232;29.132;2022-08-01T00:45:38;24.00;80.70
8945;DHT22;4507;40.232;29.132;2022-08-01T00:48:06;24.00;80.80
8945;DHT22;4507;40.232;29.132;2022-08-01T00:50:35;24.00;81.00
8945;DHT22;4507;40.232;29.132;2022-08-01T00:53:05;24.00;81.20
8945;DHT22;4507;40.232;29.132;2022-08-01T00:55:34;23.90;81.30
8945;DHT22;4507;40.232;29.132;2022-08-01T00:58:02;23.90;81.50
8945;DHT22;4507;40.232;29.132;2022-08-01T01:00:33;23.90;81.70
8945;DHT22;4507;40.232;29.132;2022-08-01T01:03:23;23.80;81.80
8945;DHT22;4507;40.232;29.132;2022-08-01T01:06:14;23.80;81.90
8945;DHT22;4507;40.232;29.132;2022-08-01T01:08:48;23.80;82.10
8945;DHT22;4507;40.232;29.132;2022-08-01T01:11:25;23.80;82.00
8945;DHT22;4507;40.232;29.132;2022-08-01T01:13:55;23.80;82.00
8945;DHT22;4507;40.232;29.132;2022-08-01T01:16:25;23.80;82.30
8945;DHT22;4507;40.232;29.132;2022-08-01T01:18:55;23.70;82.40
8945;DHT22;4507;40.232;29.132;2022-08-01T01:21:32;23.70;82.50
8945;DHT22;4507;40.232;29.132;2022-08-01T01:24:06;23.70;82.60
8945;DHT22;4507;40.232;29.132;2022-08-01T01:26:39;23.70;82.80
8945;DHT22;4507;40.232;29.132;2022-08-01T01:29:15;23.70;82.80
8945;DHT22;4507;40.232;29.132;2022-08-01T01:31:46;23.60;82.70
8945;DHT22;4507;40.232;29.132;2022-08-01T01:34:17;23.60;82.60
8945;DHT22;4507;40.232;29.132;2022-08-01T01:36:45;23.50;82.50
8945;DHT22;4507;40.232;29.132;2022-08-01T01:39:15;23.50;82.70
8945;DHT22;4507;40.232;29.132;2022-08-01T01:41:45;23.50;82.90
8945;DHT22;4507;40.232;29.132;2022-08-01T01:44:16;23.40;83.00
8945;DHT22;4507;40.232;29.132;2022-08-01T01:46:45;23.40;83.20
8945;DHT22;4507;40.232;29.132;2022-08-01T01:49:15;23.30;83.20
8945;DHT22;4507;40.232;29.132;2022-08-01T01:51:44;23.40;83.50
8945;DHT22;4507;40.232;29.132;2022-08-01T01:54:29;23.20;83.60
8945;DHT22;4507;40.232;29.132;2022-08-01T01:56:59;23.20;83.90
8945;DHT22;4507;40.232;29.132;2022-08-01T01:59:30;23.20;84.20
8945;DHT22;4507;40.232;29.132;2022-08-01T02:02:01;23.20;84.40
8945;DHT22;4507;40.232;29.132;2022-08-01T02:04:32;23.20;84.50
8945;DHT22;4507;40.232;29.132;2022-08-01T02:07:03;23.20;84.70
8945;DHT22;4507;40.232;29.132;2022-08-01T02:09:34;23.10;84.70
8945;DHT22;4507;40.232;29.132;2022-08-01T02:12:03;23.00;84.70
8945;DHT22;4507;40.232;29.132;2022-08-01T02:14:36;23.10;85.10
8945;DHT22;4507;40.232;29.132;2022-08-01T02:17:07;23.20;85.40
8945;DHT22;4507;40.232;29.132;2022-08-01T02:19:37;23.10;85.60
8945;DHT22;4507;40.232;29.132;2022-08-01T02:22:07;23.10;85.80
8945;DHT22;4507;40.232;29.132;2022-08-01T02:24:40;23.10;85.90
8945;DHT22;4507;40.232;29.132;2022-08-01T02:27:11;23.00;85.90
8945;DHT22;4507;40.232;29.132;2022-08-01T02:29:42;23.10;86.10
8945;DHT22;4507;40.232;29.132;2022-08-01T02:32:12;23.10;86.20
8945;DHT22;4507;40.232;29.132;2022-08-01T02:34:42;23.20;86.40
8945;DHT22;4507;40.232;29.132;2022-08-01T02:37:14;23.20;86.30
8945;DHT22;4507;40.232;29.132;2022-08-01T02:39:44;23.20;86.30
8945;DHT22;4507;40.232;29.132;2022-08-01T02:42:16;23.20;86.20
8945;DHT22;4507;40.232;29.132;2022-08-01T02:44:48;23.20;86.20
8945;DHT22;4507;40.232;29.132;2022-08-01T02:47:17;23.20;86.30
8945;DHT22;4507;40.232;29.132;2022-08-01T02:49:48;23.20;86.40
8945;DHT22;4507;40.232;29.132;2022-08-01T02:52:20;23.20;86.40
8945;DHT22;4507;40.232;29.132;2022-08-01T02:54:50;23.10;86.40
8945;DHT22;4507;40.232;29.132;2022-08-01T02:57:20;23.10;87.20
8945;DHT22;4507;40.232;29.132;2022-08-01T02:59:55;23.10;86.70
8945;DHT22;4507;40.232;29.132;2022-08-01T03:02:26;23.10;86.80
8945;DHT22;4507;40.232;29.132;2022-08-01T03:04:55;23.00;86.80
8945;DHT22;4507;40.232;29.132;2022-08-01T03:07:25;23.00;86.90
8945;DHT22;4507;40.232;29.132;2022-08-01T03:10:00;23.00;87.00
8945;DHT22;4507;40.232;29.132;2022-08-01T03:12:30;23.00;87.10
8945;DHT22;4507;40.232;29.132;2022-08-01T03:15:03;22.90;87.10
8945;DHT22;4507;40.232;29.132;2022-08-01T03:17:35;22.90;87.30
8945;DHT22;4507;40.232;29.132;2022-08-01T03:20:06;22.90;87.40
8945;DHT22;4507;40.232;29.132;2022-08-01T03:22:36;22.90;87.60
8945;DHT22;4507;40.232;29.132;2022-08-01T03:25:05;22.90;88.50
8945;DHT22;4507;40.232;29.132;2022-08-01T03:27:34;22.80;87.90
8945;DHT22;4507;40.232;29.132;2022-08-01T03:30:06;22.80;87.90
8945;DHT22;4507;40.232;29.132;2022-08-01T03:32:35;22.80;88.00
8945;DHT22;4507;40.232;29.132;2022-08-01T03:35:04;22.90;88.20
8945;DHT22;4507;40.232;29.132;2022-08-01T03:37:34;22.80;88.20
8945;DHT22;4507;40.232;29.132;2022-08-01T03:40:25;22.90;88.50
8945;DHT22;4507;40.232;29.132;2022-08-01T03:42:58;22.90;88.60
8945;DHT22;4507;40.232;29.132;2022-08-01T03:45:30;22.90;88.80
8945;DHT22;4507;40.232;29.132;2022-08-01T03:48:01;22.90;89.00
8945;DHT22;4507;40.232;29.132;2022-08-01T03:50:50;23.00;89.20
8945;DHT22;4507;40.232;29.132;2022-08-01T03:53:20;23.00;89.10
8945;DHT22;4507;40.232;29.132;2022-08-01T03:56:09;23.10;89.30
8945;DHT22;4507;40.232;29.132;2022-08-01T03:58:38;23.10;89.30
8945;DHT22;4507;40.232;29.132;2022-08-01T04:01:28;23.20;89.30
8945;DHT22;4507;40.232;29.132;2022-08-01T04:03:58;23.20;89.30
8945;DHT22;4507;40.232;29.132;2022-08-01T04:06:26;23.30;89.50
8945;DHT22;4507;40.232;29.132;2022-08-01T04:08:55;23.30;89.60
8945;DHT22;4507;40.232;29.132;2022-08-01T04:11:24;23.30;89.50
8945;DHT22;4507;40.232;29.132;2022-08-01T04:13:53;23.40;89.60
8945;DHT22;4507;40.232;29.132;2022-08-01T04:16:23;23.50;89.70
8945;DHT22;4507;40.232;29.132;2022-08-01T04:18:53;23.50;89.60
8945;DHT22;4507;40.232;29.132;2022-08-01T04:21:23;23.60;89.70
8945;DHT22;4507;40.232;29.132;2022-08-01T04:23:56;23.70;89.80
8945;DHT22;4507;40.232;29.132;2022-08-01T04:26:26;23.80;90.00
8945;DHT22;4507;40.232;29.132;2022-08-01T04:28:56;23.90;90.00
8945;DHT22;4507;40.232;29.132;2022-08-01T04:31:26;23.90;90.00
8945;DHT22;4507;40.232;29.132;2022-08-01T04:34:00;24.00;90.00
8945;DHT22;4507;40.232;29.132;2022-08-01T04:36:29;24.10;90.00
8945;DHT22;4507;40.232;29.132;2022-08-01T04:38:59;24.20;90.00
8945;DHT22;4507;40.232;29.132;2022-08-01T04:41:29;24.20;89.90
8945;DHT22;4507;40.232;29.132;2022-08-01T04:43:58;24.30;89.90
8945;DHT22;4507;40.232;29.132;2022-08-01T04:46:27;24.40;89.80
8945;DHT22;4507;40.232;29.132;2022-08-01T04:48:56;24.50;89.70
8945;DHT22;4507;40.232;29.132;2022-08-01T04:51:27;24.60;89.60
8945;DHT22;4507;40.232;29.132;2022-08-01T04:53:55;24.70;89.50
8945;DHT22;4507;40.232;29.132;2022-08-01T04:56:25;24.80;89.30
8945;DHT22;4507;40.232;29.132;2022-08-01T04:58:54;24.90;89.20
8945;DHT22;4507;40.232;29.132;2022-08-01T05:01:48;24.90;89.00
8945;DHT22;4507;40.232;29.132;2022-08-01T05:04:16;25.00;88.80
8945;DHT22;4507;40.232;29.132;2022-08-01T05:06:46;25.00;88.70
8945;DHT22;4507;40.232;29.132;2022-08-01T05:09:15;25.10;88.60
8945;DHT22;4507;40.232;29.132;2022-08-01T05:11:44;25.20;88.40
8945;DHT22;4507;40.232;29.132;2022-08-01T05:14:12;25.20;88.20
8945;DHT22;4507;40.232;29.132;2022-08-01T05:16:41;25.30;88.00
8945;DHT22;4507;40.232;29.132;2022-08-01T05:19:09;25.50;87.70
8945;DHT22;4507;40.232;29.132;2022-08-01T05:21:38;25.50;87.20
8945;DHT22;4507;40.232;29.132;2022-08-01T05:24:08;25.60;86.80
8945;DHT22;4507;40.232;29.132;2022-08-01T05:26:37;25.60;86.30
8945;DHT22;4507;40.232;29.132;2022-08-01T05:29:06;25.70;85.60
8945;DHT22;4507;40.232;29.132;2022-08-01T05:31:34;25.80;85.20
8945;DHT22;4507;40.232;29.132;2022-08-01T05:34:03;25.90;85.40
8945;DHT22;4507;40.232;29.132;2022-08-01T05:36:40;25.90;84.10
8945;DHT22;4507;40.232;29.132;2022-08-01T05:39:11;26.00;83.90
8945;DHT22;4507;40.232;29.132;2022-08-01T05:41:39;26.00;83.50
8945;DHT22;4507;40.232;29.132;2022-08-01T05:44:08;26.10;83.30
8945;DHT22;4507;40.232;29.132;2022-08-01T05:46:37;26.20;83.30
8945;DHT22;4507;40.232;29.132;2022-08-01T05:49:06;26.30;82.90
8945;DHT22;4507;40.232;29.132;2022-08-01T05:51:34;26.40;82.10
8945;DHT22;4507;40.232;29.132;2022-08-01T05:54:03;26.50;81.80
8945;DHT22;4507;40.232;29.132;2022-08-01T05:56:33;26.50;81.10
8945;DHT22;4507;40.232;29.132;2022-08-01T05:59:02;26.60;80.20
8945;DHT22;4507;40.232;29.132;2022-08-01T06:01:30;26.70;79.60
8945;DHT22;4507;40.232;29.132;2022-08-01T06:03:59;26.80;79.00
8945;DHT22;4507;40.232;29.132;2022-08-01T06:06:28;26.90;78.80
8945;DHT22;4507;40.232;29.132;2022-08-01T06:08:56;27.00;78.50
8945;DHT22;4507;40.232;29.132;2022-08-01T06:11:25;27.00;78.00
8945;DHT22;4507;40.232;29.132;2022-08-01T06:13:55;27.10;77.60
8945;DHT22;4507;40.232;29.132;2022-08-01T06:16:23;27.20;77.20
8945;DHT22;4507;40.232;29.132;2022-08-01T06:18:52;27.30;76.40
8945;DHT22;4507;40.232;29.132;2022-08-01T06:21:22;27.40;76.10
8945;DHT22;4507;40.232;29.132;2022-08-01T06:23:51;27.50;75.60
8945;DHT22;4507;40.232;29.132;2022-08-01T06:26:20;27.50;75.10
8945;DHT22;4507;40.232;29.132;2022-08-01T06:28:48;27.60;75.60
8945;DHT22;4507;40.232;29.132;2022-08-01T06:31:19;27.70;74.40
8945;DHT22;4507;40.232;29.132;2022-08-01T06:33:48;27.80;73.60
8945;DHT22;4507;40.232;29.132;2022-08-01T06:36:16;27.90;72.20
8945;DHT22;4507;40.232;29.132;2022-08-01T06:38:45;27.90;71.40
8945;DHT22;4507;40.232;29.132;2022-08-01T06:41:13;28.00;71.30
8945;DHT22;4507;40.232;29.132;2022-08-01T06:43:42;28.10;71.00
8945;DHT22;4507;40.232;29.132;2022-08-01T06:46:10;28.10;71.00
8945;DHT22;4507;40.232;29.132;2022-08-01T06:48:40;28.20;70.90
8945;DHT22;4507;40.232;29.132;2022-08-01T06:51:09;28.30;71.00
8945;DHT22;4507;40.232;29.132;2022-08-01T06:53:40;28.40;71.00
8945;DHT22;4507;40.232;29.132;2022-08-01T06:56:29;28.50;70.80
8945;DHT22;4507;40.232;29.132;2022-08-01T06:58:58;28.50;70.00
8945;DHT22;4507;40.232;29.132;2022-08-01T07:01:28;28.50;69.00
8945;DHT22;4507;40.232;29.132;2022-08-01T07:04:02;28.60;67.80
8945;DHT22;4507;40.232;29.132;2022-08-01T07:06:31;28.50;67.50
8945;DHT22;4507;40.232;29.132;2022-08-01T07:09:00;28.50;67.10
8945;DHT22;4507;40.232;29.132;2022-08-01T07:11:36;28.50;67.20
8945;DHT22;4507;40.232;29.132;2022-08-01T07:14:05;28.50;67.30
8945;DHT22;4507;40.232;29.132;2022-08-01T07:16:34;28.50;67.50
8945;DHT22;4507;40.232;29.132;2022-08-01T07:19:04;28.60;68.00
8945;DHT22;4507;40.232;29.132;2022-08-01T07:21:33;28.70;68.00
8945;DHT22;4507;40.232;29.132;2022-08-01T07:24:07;28.80;67.70
8945;DHT22;4507;40.232;29.132;2022-08-01T07:26:40;28.90;67.20
8945;DHT22;4507;40.232;29.132;2022-08-01T07:29:21;29.00;66.40
8945;DHT22;4507;40.232;29.132;2022-08-01T07:31:49;29.00;65.90
8945;DHT22;4507;40.232;29.132;2022-08-01T07:34:38;29.10;65.50
8945;DHT22;4507;40.232;29.132;2022-08-01T07:37:07;29.30;65.20
8945;DHT22;4507;40.232;29.132;2022-08-01T07:39:35;29.40;64.90
8945;DHT22;4507;40.232;29.132;2022-08-01T07:42:04;29.40;64.80
8945;DHT22;4507;40.232;29.132;2022-08-01T07:44:34;29.50;64.30
8945;DHT22;4507;40.232;29.132;2022-08-01T07:47:03;29.60;63.70
8945;DHT22;4507;40.232;29.132;2022-08-01T07:49:32;29.80;63.30
8945;DHT22;4507;40.232;29.132;2022-08-01T07:52:08;29.90;62.60
8945;DHT22;4507;40.232;29.132;2022-08-01T07:54:37;30.00;62.20
8945;DHT22;4507;40.232;29.132;2022-08-01T07:57:05;30.10;61.80
8945;DHT22;4507;40.232;29.132;2022-08-01T07:59:34;30.20;61.00
8945;DHT22;4507;40.232;29.132;2022-08-01T08:02:03;30.20;60.80
8945;DHT22;4507;40.232;29.132;2022-08-01T08:04:32;30.30;60.10
8945;DHT22;4507;40.232;29.132;2022-08-01T08:07:01;30.40;59.80
8945;DHT22;4507;40.232;29.132;2022-08-01T08:09:31;30.40;59.70
8945;DHT22;4507;40.232;29.132;2022-08-01T08:12:04;30.40;59.10
8945;DHT22;4507;40.232;29.132;2022-08-01T08:14:34;30.60;59.20
8945;DHT22;4507;40.232;29.132;2022-08-01T08:17:03;30.60;58.50
8945;DHT22;4507;40.232;29.132;2022-08-01T08:19:31;30.70;58.10
8945;DHT22;4507;40.232;29.132;2022-08-01T08:22:04;30.70;57.80
8945;DHT22;4507;40.232;29.132;2022-08-01T08:24:36;30.80;57.50
8945;DHT22;4507;40.232;29.132;2022-08-01T08:27:12;30.80;57.40
8945;DHT22;4507;40.232;29.132;2022-08-01T08:29:41;30.90;57.20
8945;DHT22;4507;40.232;29.132;2022-08-01T08:32:11;31.00;57.10
8945;DHT22;4507;40.232;29.132;2022-08-01T08:34:39;31.10;56.60
8945;DHT22;4507;40.232;29.132;2022-08-01T08:37:08;31.20;56.50
8945;DHT22;4507;40.232;29.132;2022-08-01T08:39:39;31.20;56.10
8945;DHT22;4507;40.232;29.132;2022-08-01T08:42:09;31.30;56.20
8945;DHT22;4507;40.232;29.132;2022-08-01T08:44:38;31.30;55.70
8945;DHT22;4507;40.232;29.132;2022-08-01T08:47:10;31.40;55.30
8945;DHT22;4507;40.232;29.132;2022-08-01T08:49:46;31.60;55.10
8945;DHT22;4507;40.232;29.132;2022-08-01T08:52:15;31.60;54.50
8945;DHT22;4507;40.232;29.132;2022-08-01T08:54:47;31.80;54.40
8945;DHT22;4507;40.232;29.132;2022-08-01T08:57:17;31.80;53.50
8945;DHT22;4507;40.232;29.132;2022-08-01T09:00:06;31.90;53.40
8945;DHT22;4507;40.232;29.132;2022-08-01T09:02:36;32.00;52.90
8945;DHT22;4507;40.232;29.132;2022-08-01T09:05:08;32.10;52.50
8945;DHT22;4507;40.232;29.132;2022-08-01T09:07:44;32.20;52.30
8945;DHT22;4507;40.232;29.132;2022-08-01T09:10:15;32.10;52.10
8945;DHT22;4507;40.232;29.132;2022-08-01T09:13:07;32.20;51.90
8945;DHT22;4507;40.232;29.132;2022-08-01T09:15:38;32.10;51.60
8945;DHT22;4507;40.232;29.132;2022-08-01T09:18:07;32.10;51.80
8945;DHT22;4507;40.232;29.132;2022-08-01T09:20:36;32.00;51.90
8945;DHT22;4507;40.232;29.132;2022-08-01T09:23:04;32.00;52.10
8945;DHT22;4507;40.232;29.132;2022-08-01T09:28:19;32.10;52.00
8945;DHT22;4507;40.232;29.132;2022-08-01T09:31:14;32.20;51.90
8945;DHT22;4507;40.232;29.132;2022-08-01T09:33:48;32.20;52.20
8945;DHT22;4507;40.232;29.132;2022-08-01T09:36:18;32.40;52.00
8945;DHT22;4507;40.232;29.132;2022-08-01T09:38:47;32.60;50.80
8945;DHT22;4507;40.232;29.132;2022-08-01T09:41:17;32.60;49.80
8945;DHT22;4507;40.232;29.132;2022-08-01T09:43:49;32.80;49.90
8945;DHT22;4507;40.232;29.132;2022-08-01T09:46:19;32.80;50.00
8945;DHT22;4507;40.232;29.132;2022-08-01T09:48:55;32.90;50.10
8945;DHT22;4507;40.232;29.132;2022-08-01T09:51:28;32.90;50.30
8945;DHT22;4507;40.232;29.132;2022-08-01T09:54:17;33.10;50.00
8945;DHT22;4507;40.232;29.132;2022-08-01T09:57:06;33.10;49.50
8945;DHT22;4507;40.232;29.132;2022-08-01T09:59:37;33.10;49.80
8945;DHT22;4507;40.232;29.132;2022-08-01T10:02:43;33.20;50.30
8945;DHT22;4507;40.232;29.132;2022-08-01T10:05:11;33.30;50.60
8945;DHT22;4507;40.232;29.132;2022-08-01T10:07:57;33.30;50.80
8945;DHT22;4507;40.232;29.132;2022-08-01T10:10:26;33.50;50.40
8945;DHT22;4507;40.232;29.132;2022-08-01T10:12:58;33.50;49.70
8945;DHT22;4507;40.232;29.132;2022-08-01T10:15:30;33.60;49.70
8945;DHT22;4507;40.232;29.132;2022-08-01T10:18:04;33.70;49.80
8945;DHT22;4507;40.232;29.132;2022-08-01T10:20:51;33.80;49.50
8945;DHT22;4507;40.232;29.132;2022-08-01T10:23:23;33.90;49.10
8945;DHT22;4507;40.232;29.132;2022-08-01T10:26:07;33.90;48.80
8945;DHT22;4507;40.232;29.132;2022-08-01T10:28:36;34.00;48.80
8945;DHT22;4507;40.232;29.132;2022-08-01T10:31:07;34.00;48.90
8945;DHT22;4507;40.232;29.132;2022-08-01T10:33:40;34.10;48.50
8945;DHT22;4507;40.232;29.132;2022-08-01T10:36:19;34.20;47.90
8945;DHT22;4507;40.232;29.132;2022-08-01T10:38:51;34.20;48.10
8945;DHT22;4507;40.232;29.132;2022-08-01T10:41:20;34.20;48.40
8945;DHT22;4507;40.232;29.132;2022-08-01T10:43:51;34.30;48.00
8945;DHT22;4507;40.232;29.132;2022-08-01T10:46:22;34.40;47.90
8945;DHT22;4507;40.232;29.132;2022-08-01T10:49:10;34.40;47.40
8945;DHT22;4507;40.232;29.132;2022-08-01T10:51:40;34.50;47.20
8945;DHT22;4507;40.232;29.132;2022-08-01T10:54:20;34.60;47.20
8945;DHT22;4507;40.232;29.132;2022-08-01T10:56:55;34.70;46.90
8945;DHT22;4507;40.232;29.132;2022-08-01T10:59:28;34.70;46.60
8945;DHT22;4507;40.232;29.132;2022-08-01T11:02:26;34.80;46.20
8945;DHT22;4507;40.232;29.132;2022-08-01T11:05:19;34.90;46.10
8945;DHT22;4507;40.232;29.132;2022-08-01T11:07:51;35.10;46.20
8945;DHT22;4507;40.232;29.132;2022-08-01T11:10:22;34.80;46.10
8945;DHT22;4507;40.232;29.132;2022-08-01T11:12:52;35.20;46.20
8945;DHT22;4507;40.232;29.132;2022-08-01T11:15:22;35.30;46.30
8945;DHT22;4507;40.232;29.132;2022-08-01T11:17:59;35.40;46.40
8945;DHT22;4507;40.232;29.132;2022-08-01T11:20:29;35.50;46.50
8945;DHT22;4507;40.232;29.132;2022-08-01T11:23:17;35.70;46.40
8945;DHT22;4507;40.232;29.132;2022-08-01T11:26:08;35.90;46.60
8945;DHT22;4507;40.232;29.132;2022-08-01T11:29:12;36.10;45.60
8945;DHT22;4507;40.232;29.132;2022-08-01T11:31:48;36.30;45.20
8945;DHT22;4507;40.232;29.132;2022-08-01T11:34:18;36.30;45.70
8945;DHT22;4507;40.232;29.132;2022-08-01T11:36:48;36.40;45.70
8945;DHT22;4507;40.232;29.132;2022-08-01T11:39:25;36.50;45.70
8945;DHT22;4507;40.232;29.132;2022-08-01T11:41:55;36.60;44.80
8945;DHT22;4507;40.232;29.132;2022-08-01T11:44:50;36.60;44.60
8945;DHT22;4507;40.232;29.132;2022-08-01T11:50:04;36.70;43.90
8945;DHT22;4507;40.232;29.132;2022-08-01T11:52:33;36.60;43.90
8945;DHT22;4507;40.232;29.132;2022-08-01T11:55:05;36.60;44.30
8945;DHT22;4507;40.232;29.132;2022-08-01T11:57:37;36.60;44.20
8945;DHT22;4507;40.232;29.132;2022-08-01T12:00:10;36.60;44.40
8945;DHT22;4507;40.232;29.132;2022-08-01T12:03:01;36.60;44.80
8945;DHT22;4507;40.232;29.132;2022-08-01T12:05:33;36.60;43.80
8945;DHT22;4507;40.232;29.132;2022-08-01T12:08:09;36.60;43.60
8945;DHT22;4507;40.232;29.132;2022-08-01T12:10:38;36.60;43.10
8945;DHT22;4507;40.232;29.132;2022-08-01T12:13:16;36.50;43.10
8945;DHT22;4507;40.232;29.132;2022-08-01T12:15:47;36.30;43.30
8945;DHT22;4507;40.232;29.132;2022-08-01T12:18:22;36.20;43.60
8945;DHT22;4507;40.232;29.132;2022-08-01T12:20:57;36.00;43.40
8945;DHT22;4507;40.232;29.132;2022-08-01T12:23:30;35.90;43.30
8945;DHT22;4507;40.232;29.132;2022-08-01T12:25:59;35.80;43.40
8945;DHT22;4507;40.232;29.132;2022-08-01T12:28:28;35.70;43.60
8945;DHT22;4507;40.232;29.132;2022-08-01T12:30:57;35.70;43.80
8945;DHT22;4507;40.232;29.132;2022-08-01T12:33:26;35.60;44.00
8945;DHT22;4507;40.232;29.132;2022-08-01T12:35:56;35.50;44.20
8945;DHT22;4507;40.232;29.132;2022-08-01T12:38:25;35.60;44.40
8945;DHT22;4507;40.232;29.132;2022-08-01T12:40:55;35.60;43.90
8945;DHT22;4507;40.232;29.132;2022-08-01T12:43:24;35.70;43.70
8945;DHT22;4507;40.232;29.132;2022-08-01T12:45:55;35.70;43.30
8945;DHT22;4507;40.232;29.132;2022-08-01T12:48:26;35.80;43.40
8945;DHT22;4507;40.232;29.132;2022-08-01T12:50:57;35.90;43.50
8945;DHT22;4507;40.232;29.132;2022-08-01T12:53:46;35.90;43.70
8945;DHT22;4507;40.232;29.132;2022-08-01T12:56:16;36.00;43.20
8945;DHT22;4507;40.232;29.132;2022-08-01T12:58:45;35.90;42.80
8945;DHT22;4507;40.232;29.132;2022-08-01T13:01:14;35.80;42.70
8945;DHT22;4507;40.232;29.132;2022-08-01T13:03:56;35.70;42.50
8945;DHT22;4507;40.232;29.132;2022-08-01T13:06:27;35.60;43.00
8945;DHT22;4507;40.232;29.132;2022-08-01T13:09:04;35.60;42.80
8945;DHT22;4507;40.232;29.132;2022-08-01T13:11:33;35.50;42.30
8945;DHT22;4507;40.232;29.132;2022-08-01T13:14:02;35.40;42.00
8945;DHT22;4507;40.232;29.132;2022-08-01T13:16:30;35.30;41.90
8945;DHT22;4507;40.232;29.132;2022-08-01T13:19:19;35.10;42.20
8945;DHT22;4507;40.232;29.132;2022-08-01T13:21:56;34.90;42.70
8945;DHT22;4507;40.232;29.132;2022-08-01T13:24:26;34.70;42.90
8945;DHT22;4507;40.232;29.132;2022-08-01T13:26:55;34.50;43.90
8945;DHT22;4507;40.232;29.132;2022-08-01T13:29:29;34.30;43.30
8945;DHT22;4507;40.232;29.132;2022-08-01T13:31:58;34.10;44.00
8945;DHT22;4507;40.232;29.132;2022-08-01T13:34:30;34.00;43.50
8945;DHT22;4507;40.232;29.132;2022-08-01T13:37:01;34.00;43.50
8945;DHT22;4507;40.232;29.132;2022-08-01T13:39:33;33.80;43.70
8945;DHT22;4507;40.232;29.132;2022-08-01T13:42:09;33.80;43.80
8945;DHT22;4507;40.232;29.132;2022-08-01T13:44:45;33.70;44.00
8945;DHT22;4507;40.232;29.132;2022-08-01T13:47:14;33.50;44.20
8945;DHT22;4507;40.232;29.132;2022-08-01T13:49:43;33.40;44.30
8945;DHT22;4507;40.232;29.132;2022-08-01T13:52:13;33.40;44.50
8945;DHT22;4507;40.232;29.132;2022-08-01T13:54:42;33.30;44.80
8945;DHT22;4507;40.232;29.132;2022-08-01T13:57:11;33.20;45.00
8945;DHT22;4507;40.232;29.132;2022-08-01T13:59:41;33.20;45.30
8945;DHT22;4507;40.232;29.132;2022-08-01T14:02:10;33.20;45.70
8945;DHT22;4507;40.232;29.132;2022-08-01T14:04:38;33.20;45.70
8945;DHT22;4507;40.232;29.132;2022-08-01T14:07:07;33.20;45.60
8945;DHT22;4507;40.232;29.132;2022-08-01T14:10:01;33.20;45.40
8945;DHT22;4507;40.232;29.132;2022-08-01T14:12:46;33.10;45.20
8945;DHT22;4507;40.232;29.132;2022-08-01T14:15:15;33.00;45.20
8945;DHT22;4507;40.232;29.132;2022-08-01T14:18:04;32.90;45.30
8945;DHT22;4507;40.232;29.132;2022-08-01T14:20:33;32.90;45.60
8945;DHT22;4507;40.232;29.132;2022-08-01T14:23:02;32.80;45.60
8945;DHT22;4507;40.232;29.132;2022-08-01T14:25:36;32.70;45.70
8945;DHT22;4507;40.232;29.132;2022-08-01T14:28:25;32.70;45.80
8945;DHT22;4507;40.232;29.132;2022-08-01T14:30:55;32.70;45.90
8945;DHT22;4507;40.232;29.132;2022-08-01T14:33:24;32.60;46.00
8945;DHT22;4507;40.232;29.132;2022-08-01T14:35:53;32.60;46.10
8945;DHT22;4507;40.232;29.132;2022-08-01T14:39:00;32.60;46.30
8945;DHT22;4507;40.232;29.132;2022-08-01T14:41:31;32.60;46.00
8945;DHT22;4507;40.232;29.132;2022-08-01T14:44:01;32.60;46.00
8945;DHT22;4507;40.232;29.132;2022-08-01T14:46:31;32.50;46.20
8945;DHT22;4507;40.232;29.132;2022-08-01T14:49:00;32.60;46.60
8945;DHT22;4507;40.232;29.132;2022-08-01T14:51:28;32.50;46.50
8945;DHT22;4507;40.232;29.132;2022-08-01T14:54:00;32.40;46.40
8945;DHT22;4507;40.232;29.132;2022-08-01T14:56:29;32.40;46.60
8945;DHT22;4507;40.232;29.132;2022-08-01T14:59:00;32.30;46.50
8945;DHT22;4507;40.232;29.132;2022-08-01T15:01:29;32.30;46.80
8945;DHT22;4507;40.232;29.132;2022-08-01T15:03:58;32.30;46.50
8945;DHT22;4507;40.232;29.132;2022-08-01T15:06:30;32.20;46.50
8945;DHT22;4507;40.232;29.132;2022-08-01T15:08:58;32.20;46.80
8945;DHT22;4507;40.232;29.132;2022-08-01T15:11:34;32.10;46.30
8945;DHT22;4507;40.232;29.132;2022-08-01T15:14:04;32.00;46.10
8945;DHT22;4507;40.232;29.132;2022-08-01T15:16:50;32.00;46.10
8945;DHT22;4507;40.232;29.132;2022-08-01T15:19:18;31.90;46.30
8945;DHT22;4507;40.232;29.132;2022-08-01T15:21:47;31.80;46.40
8945;DHT22;4507;40.232;29.132;2022-08-01T15:24:16;31.80;46.40
8945;DHT22;4507;40.232;29.132;2022-08-01T15:26:44;31.80;46.60
8945;DHT22;4507;40.232;29.132;2022-08-01T15:29:14;31.70;46.50
8945;DHT22;4507;40.232;29.132;2022-08-01T15:31:43;31.70;46.50
8945;DHT22;4507;40.232;29.132;2022-08-01T15:34:12;31.70;46.70
8945;DHT22;4507;40.232;29.132;2022-08-01T15:36:41;31.60;46.70
8945;DHT22;4507;40.232;29.132;2022-08-01T15:39:14;31.70;46.80
8945;DHT22;4507;40.232;29.132;2022-08-01T15:41:43;31.60;46.60
8945;DHT22;4507;40.232;29.132;2022-08-01T15:44:11;31.60;46.60
8945;DHT22;4507;40.232;29.132;2022-08-01T15:46:42;31.50;46.70
8945;DHT22;4507;40.232;29.132;2022-08-01T15:49:10;31.50;47.10
8945;DHT22;4507;40.232;29.132;2022-08-01T15:51:39;31.50;46.80
8945;DHT22;4507;40.232;29.132;2022-08-01T15:54:07;31.50;46.70
8945;DHT22;4507;40.232;29.132;2022-08-01T15:56:40;31.50;46.60
8945;DHT22;4507;40.232;29.132;2022-08-01T15:59:09;31.50;46.40
8945;DHT22;4507;40.232;29.132;2022-08-01T16:01:38;31.50;46.30
8945;DHT22;4507;40.232;29.132;2022-08-01T16:04:08;31.40;46.20
8945;DHT22;4507;40.232;29.132;2022-08-01T16:06:37;31.40;46.00
8945;DHT22;4507;40.232;29.132;2022-08-01T16:09:05;31.30;45.70
8945;DHT22;4507;40.232;29.132;2022-08-01T16:12:02;31.30;45.70
8945;DHT22;4507;40.232;29.132;2022-08-01T16:14:31;31.20;45.40
8945;DHT22;4507;40.232;29.132;2022-08-01T16:17:00;31.10;45.00
8945;DHT22;4507;40.232;29.132;2022-08-01T16:19:30;31.00;45.00
8945;DHT22;4507;40.232;29.132;2022-08-01T16:21:58;31.00;45.20